createdAt,value
2018-09-19T00:00:32.227Z,18.30
2018-09-19T00:04:34.820Z,18.10
2018-09-19T00:08:37.475Z,18.10
2018-09-19T00:12:40.110Z,18.10
2018-09-19T00:16:42.723Z,18.10
2018-09-19T00:20:45.378Z,18.10
2018-09-19T00:24:47.995Z,18.10
2018-09-19T00:28:50.608Z,18.10
2018-09-19T00:32:53.232Z,18.00
2018-09-19T00:36:55.774Z,18.10
2018-09-19T00:40:58.332Z,18.00
2018-09-19T00:45:00.902Z,18.00
2018-09-19T00:49:03.558Z,18.10
2018-09-19T00:53:06.238Z,18.10
2018-09-19T00:57:08.892Z,18.10
2018-09-19T01:01:11.473Z,18.10
2018-09-19T01:05:20.178Z,18.00
2018-09-19T01:09:29.010Z,18.00
2018-09-19T01:13:37.917Z,18.10
2018-09-19T01:17:46.677Z,18.00
2018-09-19T01:21:55.585Z,18.00
2018-09-19T01:26:04.444Z,18.00
2018-09-19T01:30:13.297Z,18.00
2018-09-19T01:34:22.082Z,18.00
2018-09-19T01:38:31.009Z,17.90
2018-09-19T01:42:39.890Z,17.90
2018-09-19T01:46:48.766Z,17.80
2018-09-19T01:50:57.496Z,17.80
2018-09-19T01:55:06.385Z,17.70
2018-09-19T01:59:15.260Z,17.70
2018-09-19T02:03:23.956Z,17.70
2018-09-19T02:07:32.748Z,17.60
2018-09-19T02:11:41.965Z,17.60
2018-09-19T02:15:50.807Z,17.60
2018-09-19T02:19:59.592Z,17.60
2018-09-19T02:24:08.433Z,17.50
2018-09-19T02:28:17.136Z,17.50
2018-09-19T02:32:25.932Z,17.50
2018-09-19T02:36:34.850Z,17.40
2018-09-19T02:40:43.591Z,17.40
2018-09-19T02:44:52.370Z,17.30
2018-09-19T02:49:01.002Z,17.30
2018-09-19T02:53:09.822Z,17.20
2018-09-19T02:57:18.652Z,17.00
2018-09-19T03:01:27.360Z,16.90
2018-09-19T03:05:36.179Z,16.80
2018-09-19T03:09:45.002Z,16.80
2018-09-19T03:13:53.938Z,16.70
2018-09-19T03:18:02.773Z,16.50
2018-09-19T03:22:11.466Z,16.40
2018-09-19T03:26:20.350Z,16.30
2018-09-19T03:30:29.115Z,16.20
2018-09-19T03:34:38.030Z,16.10
2018-09-19T03:38:46.754Z,16.00
2018-09-19T03:42:55.608Z,16.00
2018-09-19T03:47:04.445Z,16.00
2018-09-19T03:51:13.295Z,16.00
2018-09-19T03:55:22.196Z,15.80
2018-09-19T03:59:31.065Z,15.80
2018-09-19T04:03:39.974Z,15.70
2018-09-19T04:07:48.734Z,15.70
2018-09-19T04:11:57.558Z,15.70
2018-09-19T04:16:06.326Z,15.70
2018-09-19T04:20:15.104Z,15.70
2018-09-19T04:24:23.913Z,15.60
2018-09-19T04:28:32.796Z,15.60
2018-09-19T04:32:41.564Z,15.50
2018-09-19T04:36:50.356Z,15.60
2018-09-19T04:40:59.123Z,15.50
2018-09-19T04:45:07.947Z,15.30
2018-09-19T04:49:16.691Z,15.20
2018-09-19T04:53:25.589Z,15.10
2018-09-19T04:57:34.288Z,15.00
2018-09-19T05:01:43.086Z,14.90
2018-09-19T05:05:51.973Z,14.80
2018-09-19T05:10:00.807Z,14.90
2018-09-19T05:14:09.703Z,15.00
2018-09-19T05:18:18.629Z,14.90
2018-09-19T05:22:27.593Z,14.90
2018-09-19T05:26:36.458Z,14.90
2018-09-19T05:30:45.091Z,14.80
2018-09-19T05:34:54.029Z,14.80
2018-09-19T05:39:03.333Z,14.80
2018-09-19T05:43:12.094Z,14.80
2018-09-19T05:47:20.916Z,15.00
2018-09-19T05:51:30.038Z,15.20
2018-09-19T05:55:38.698Z,15.30
2018-09-19T05:59:48.095Z,15.30
2018-09-19T06:03:57.095Z,15.60
2018-09-19T06:08:05.798Z,16.00
2018-09-19T06:12:14.526Z,16.20
2018-09-19T06:16:23.299Z,16.70
2018-09-19T06:20:32.114Z,16.80
2018-09-19T06:24:40.963Z,17.70
2018-09-19T06:28:49.599Z,17.70
2018-09-19T06:32:58.520Z,18.00
2018-09-19T06:37:07.428Z,18.40
2018-09-19T06:41:16.222Z,18.70
2018-09-19T06:45:25.139Z,18.90
2018-09-19T06:49:34.028Z,19.00
2018-09-19T06:53:42.857Z,19.40
2018-09-19T06:57:51.736Z,19.80
2018-09-19T07:02:00.639Z,19.90
2018-09-19T07:06:09.421Z,20.20
2018-09-19T07:10:18.282Z,20.70
2018-09-19T07:14:27.005Z,20.30
2018-09-19T07:18:35.803Z,20.60
2018-09-19T07:22:44.599Z,21.50
2018-09-19T07:26:53.354Z,21.20
2018-09-19T07:31:02.253Z,21.20
2018-09-19T07:35:10.892Z,22.10
2018-09-19T07:39:19.721Z,22.70
2018-09-19T07:43:28.369Z,22.30
2018-09-19T07:47:37.274Z,22.20
2018-09-19T07:51:46.142Z,22.30
2018-09-19T07:55:54.822Z,23.00
2018-09-19T08:00:03.682Z,22.40
2018-09-19T08:04:12.434Z,23.10
2018-09-19T08:08:21.459Z,23.70
2018-09-19T08:12:30.286Z,23.80
2018-09-19T08:16:39.095Z,24.10
2018-09-19T08:20:47.847Z,24.30
2018-09-19T08:24:56.675Z,24.80
2018-09-19T08:29:05.344Z,24.00
2018-09-19T08:33:14.051Z,24.20
2018-09-19T08:37:22.753Z,24.40
2018-09-19T08:41:31.351Z,25.20
2018-09-19T08:45:40.040Z,25.10
2018-09-19T08:49:48.910Z,25.70
2018-09-19T08:53:57.787Z,26.00
2018-09-19T08:58:06.537Z,26.20
2018-09-19T09:02:15.268Z,25.70
2018-09-19T09:06:24.003Z,26.90
2018-09-19T09:10:32.699Z,26.80
2018-09-19T09:14:41.328Z,27.20
2018-09-19T09:18:50.065Z,26.70
2018-09-19T09:22:58.960Z,27.20
2018-09-19T09:27:07.827Z,27.40
2018-09-19T09:31:16.557Z,27.40
2018-09-19T09:35:25.571Z,28.00
2018-09-19T09:39:34.485Z,27.50
2018-09-19T09:43:43.265Z,27.50
2018-09-19T09:47:51.998Z,27.50
2018-09-19T09:52:00.730Z,28.00
2018-09-19T09:56:09.528Z,28.20
2018-09-19T10:00:22.705Z,28.40
2018-09-19T10:04:31.640Z,27.70
2018-09-19T10:08:40.268Z,28.30
2018-09-19T10:12:49.203Z,28.70
2018-09-19T10:16:57.935Z,27.90
2018-09-19T10:21:06.739Z,28.20
2018-09-19T10:25:15.605Z,28.00
2018-09-19T10:29:24.449Z,28.20
2018-09-19T10:33:33.141Z,28.40
2018-09-19T10:37:41.832Z,28.30
2018-09-19T10:41:50.695Z,28.20
2018-09-19T10:45:59.419Z,27.70
2018-09-19T10:50:08.295Z,28.40
2018-09-19T10:54:17.129Z,28.40
2018-09-19T10:58:25.812Z,28.20
2018-09-19T11:02:34.590Z,27.50
2018-09-19T11:06:43.373Z,27.20
2018-09-19T11:10:52.050Z,27.20
2018-09-19T11:15:00.808Z,27.50
2018-09-19T11:19:09.533Z,27.20
2018-09-19T11:23:18.596Z,27.40
2018-09-19T11:27:27.438Z,27.90
2018-09-19T11:31:36.347Z,27.30
2018-09-19T11:35:45.305Z,27.40
2018-09-19T11:39:54.099Z,27.30
2018-09-19T11:44:02.788Z,27.60
2018-09-19T11:48:11.486Z,27.90
2018-09-19T11:52:20.776Z,27.80
2018-09-19T11:56:29.684Z,28.30
2018-09-19T12:00:38.609Z,29.30
2018-09-19T12:04:47.402Z,29.50
2018-09-19T12:08:55.997Z,29.70
2018-09-19T12:13:06.212Z,29.60
2018-09-19T12:17:14.984Z,29.10
2018-09-19T12:21:23.768Z,29.10
2018-09-19T12:25:32.618Z,28.80
2018-09-19T12:29:41.480Z,28.60
2018-09-19T12:33:50.352Z,28.60
2018-09-19T12:37:59.309Z,28.20
2018-09-19T12:42:08.041Z,28.60
2018-09-19T12:46:16.939Z,28.00
2018-09-19T12:50:25.820Z,28.10
2018-09-19T12:54:34.515Z,28.20
2018-09-19T12:58:43.557Z,28.50
2018-09-19T13:02:52.312Z,28.60
2018-09-19T13:07:01.236Z,28.90
2018-09-19T13:11:10.045Z,28.60
2018-09-19T13:15:18.762Z,28.40
2018-09-19T13:19:27.689Z,28.20
2018-09-19T13:23:36.493Z,28.30
2018-09-19T13:27:45.265Z,28.10
2018-09-19T13:31:54.671Z,28.60
2018-09-19T13:36:03.437Z,28.70
2018-09-19T13:40:12.468Z,28.50
2018-09-19T13:44:21.157Z,28.80
2018-09-19T13:48:30.240Z,29.20
2018-09-19T13:52:39.204Z,29.10
2018-09-19T13:56:47.921Z,29.00
2018-09-19T14:00:56.843Z,29.30
2018-09-19T14:05:05.661Z,29.30
2018-09-19T14:09:15.299Z,29.10
2018-09-19T14:13:24.021Z,29.20
2018-09-19T14:17:32.591Z,29.30
2018-09-19T14:21:41.315Z,29.00
2018-09-19T14:25:50.173Z,28.80
2018-09-19T14:29:59.257Z,28.80
2018-09-19T14:34:09.582Z,28.90
2018-09-19T14:38:18.429Z,28.40
2018-09-19T14:42:32.478Z,28.40
2018-09-19T14:50:57.900Z,28.50
2018-09-19T14:55:10.551Z,28.40
2018-09-19T14:59:19.379Z,28.10
2018-09-19T15:03:28.146Z,28.10
2018-09-19T15:07:36.944Z,27.80
2018-09-19T15:11:45.863Z,27.80
2018-09-19T15:15:54.666Z,27.80
2018-09-19T15:20:03.681Z,27.70
2018-09-19T15:24:12.571Z,27.60
2018-09-19T15:28:21.284Z,27.70
2018-09-19T15:32:30.080Z,27.70
2018-09-19T15:36:39.212Z,27.70
2018-09-19T15:40:48.289Z,27.60
2018-09-19T15:44:57.144Z,27.50
2018-09-19T15:48:59.894Z,27.40
2018-09-19T15:53:03.714Z,27.40
2018-09-19T15:57:06.853Z,27.40
2018-09-19T16:01:09.639Z,27.40
2018-09-19T16:05:13.590Z,27.30
2018-09-19T16:09:16.756Z,27.30
2018-09-19T16:13:20.175Z,27.10
2018-09-19T16:17:22.916Z,27.00
2018-09-19T16:21:26.529Z,26.90
2018-09-19T16:25:29.229Z,26.90
2018-09-19T16:29:32.394Z,26.90
2018-09-19T16:33:35.084Z,26.70
2018-09-19T16:37:37.861Z,26.70
2018-09-19T16:41:40.604Z,26.60
2018-09-19T16:45:43.382Z,26.60
2018-09-19T16:49:45.947Z,26.50
2018-09-19T16:53:48.674Z,26.40
2018-09-19T16:57:51.445Z,26.20
2018-09-19T17:01:54.254Z,26.10
2018-09-19T17:05:56.851Z,25.90
2018-09-19T17:09:59.468Z,25.80
2018-09-19T17:14:02.123Z,25.60
2018-09-19T17:18:05.090Z,25.50
2018-09-19T17:22:08.012Z,25.40
2018-09-19T17:26:12.218Z,25.30
2018-09-19T17:30:14.829Z,25.10
2018-09-19T17:34:17.602Z,25.00
2018-09-19T17:38:20.847Z,24.90
2018-09-19T17:42:23.741Z,24.70
2018-09-19T17:46:27.569Z,24.50
2018-09-19T17:50:30.242Z,24.40
2018-09-19T17:54:34.390Z,24.30
2018-09-19T17:58:38.141Z,24.20
2018-09-19T18:02:40.998Z,24.10
2018-09-19T18:06:43.675Z,24.00
2018-09-19T18:10:47.271Z,23.90
2018-09-19T18:14:50.673Z,23.70
2018-09-19T18:18:53.414Z,23.60
2018-09-19T18:22:56.248Z,23.60
2018-09-19T18:26:59.253Z,23.50
2018-09-19T18:31:03.181Z,23.40
2018-09-19T18:35:05.875Z,23.30
2018-09-19T18:39:09.829Z,23.10
2018-09-19T18:47:33.819Z,23.00
2018-09-19T18:51:36.400Z,22.90
2018-09-19T18:55:39.176Z,22.80
2018-09-19T18:59:41.992Z,22.70
2018-09-19T19:03:46.939Z,22.60
2018-09-19T19:07:49.859Z,22.60
2018-09-19T19:11:52.741Z,22.50
2018-09-19T19:15:57.192Z,22.40
2018-09-19T19:20:00.065Z,22.30
2018-09-19T19:24:02.922Z,22.20
2018-09-19T19:28:06.079Z,22.10
2018-09-19T19:32:08.790Z,22.00
2018-09-19T19:36:11.704Z,22.00
2018-09-19T19:40:14.970Z,21.90
2018-09-19T19:44:17.707Z,21.80
2018-09-19T19:48:20.338Z,21.60
2018-09-19T19:52:23.317Z,21.60
2018-09-19T19:56:26.009Z,21.50
2018-09-19T20:00:28.658Z,21.50
2018-09-19T20:04:32.478Z,21.40
2018-09-19T20:08:35.991Z,21.30
2018-09-19T20:12:38.931Z,21.30
2018-09-19T20:16:41.642Z,21.20
2018-09-19T20:20:44.269Z,21.10
2018-09-19T20:24:47.079Z,21.00
2018-09-19T20:28:49.817Z,20.90
2018-09-19T20:32:52.631Z,20.90
2018-09-19T20:36:55.325Z,20.80
2018-09-19T20:40:58.786Z,20.70
2018-09-19T20:45:05.492Z,20.60
2018-09-19T20:49:09.623Z,20.60
2018-09-19T20:53:12.710Z,20.60
2018-09-19T20:57:15.466Z,20.40
2018-09-19T21:01:18.230Z,20.40
2018-09-19T21:05:21.814Z,20.30
2018-09-19T21:09:24.537Z,20.10
2018-09-19T21:13:27.201Z,20.10
2018-09-19T21:17:29.892Z,19.90
2018-09-19T21:21:32.760Z,19.80
2018-09-19T21:25:35.791Z,19.70
2018-09-19T21:29:38.493Z,19.70
2018-09-19T21:33:41.119Z,19.60
2018-09-19T21:37:43.774Z,19.60
2018-09-19T21:41:46.427Z,19.50
2018-09-19T21:45:49.062Z,19.30
2018-09-19T21:49:51.680Z,19.30
2018-09-19T21:53:54.269Z,19.30
2018-09-19T21:57:56.973Z,19.20
2018-09-19T22:02:00.397Z,19.20
2018-09-19T22:06:03.059Z,19.20
2018-09-19T22:10:05.747Z,19.30
2018-09-19T22:14:08.538Z,19.30
2018-09-19T22:18:11.188Z,19.30
2018-09-19T22:22:13.772Z,19.30
2018-09-19T22:26:17.746Z,19.40
2018-09-19T22:30:20.412Z,19.40
2018-09-19T22:34:23.061Z,19.40
2018-09-19T22:38:25.692Z,19.30
2018-09-19T22:42:28.390Z,19.30
2018-09-19T22:46:31.038Z,19.30
2018-09-19T22:50:33.741Z,19.30
2018-09-19T22:54:36.384Z,19.20
2018-09-19T22:58:39.034Z,19.20
2018-09-19T23:02:41.602Z,19.10
2018-09-19T23:06:44.264Z,19.00
2018-09-19T23:10:46.908Z,19.00
2018-09-19T23:14:49.655Z,18.90
2018-09-19T23:18:52.341Z,18.80
2018-09-19T23:22:54.992Z,18.70
2018-09-19T23:26:57.635Z,18.60
2018-09-19T23:31:00.337Z,18.60
2018-09-19T23:35:02.977Z,18.50
2018-09-19T23:39:07.052Z,18.50
2018-09-19T23:43:09.720Z,18.40
2018-09-19T23:47:12.492Z,18.40
2018-09-19T23:51:15.124Z,18.30
2018-09-19T23:55:17.721Z,18.20
2018-09-19T23:59:20.353Z,18.10
